Mae Sariang, Thailand
Current Conditions -  °F | °C
As of 9:00 PM on Thursday 30 Oct 2014 (Local Time) from VTCC Reporting Station
Scattered Clouds Scattered Clouds  
Wind Chill: 26°   Ceiling: Unl
Heat Index: 28°   Visibility: 6mi
Dew Point: 22°   Wind: 5mph
Humidity: 78%   Direction: 240°WSW
Pressure: 29.94"   Gusts: NA
Location:  18.15°N, 97.93°E
Report Text: VTCC 301400Z 24004KT 9999 SCT035 26/22 Q1014 A2995 NOSIG
Loading
Personal Weather Stations






























Interactive Weather Map
Tropical Storm Tracking
New forecast layout! Learn more

10-Day Weather Forecast

Advertisements
Track Severe Weather on mobile